createdAt,value
2023-05-14T00:02:45.598Z,94.05
2023-05-14T00:07:47.637Z,94.52
2023-05-14T00:12:49.228Z,94.76
2023-05-14T00:17:51.252Z,94.57
2023-05-14T00:22:52.970Z,94.48
2023-05-14T00:27:54.585Z,94.41
2023-05-14T00:32:56.259Z,95.62
2023-05-14T00:37:58.460Z,95.00
2023-05-14T00:43:00.269Z,95.15
2023-05-14T00:48:02.006Z,95.35
2023-05-14T00:53:10.050Z,95.73
2023-05-14T00:58:13.429Z,96.07
2023-05-14T01:03:15.146Z,95.93
2023-05-14T01:08:27.802Z,95.74
2023-05-14T01:13:47.072Z,96.43
2023-05-14T01:18:50.868Z,97.63
2023-05-14T01:23:52.544Z,96.79
2023-05-14T01:29:03.023Z,96.17
2023-05-14T01:34:06.845Z,95.49
2023-05-14T01:39:09.703Z,94.99
2023-05-14T01:44:11.936Z,95.02
2023-05-14T01:49:13.731Z,95.16
2023-05-14T01:54:15.422Z,94.95
2023-05-14T01:59:17.603Z,95.15
2023-05-14T02:04:20.780Z,95.17
2023-05-14T02:09:22.758Z,94.96
2023-05-14T02:14:24.386Z,95.21
2023-05-14T02:19:26.233Z,95.61
2023-05-14T02:24:27.979Z,95.66
2023-05-14T02:29:30.371Z,95.95
2023-05-14T02:34:34.318Z,96.05
2023-05-14T02:39:36.460Z,95.66
2023-05-14T02:44:38.352Z,95.72
2023-05-14T02:49:40.364Z,95.22
2023-05-14T02:54:42.034Z,95.23
2023-05-14T02:59:43.753Z,95.20
2023-05-14T03:04:45.700Z,95.63
2023-05-14T03:09:47.417Z,95.48
2023-05-14T03:14:49.101Z,95.31
2023-05-14T03:19:50.794Z,95.22
2023-05-14T03:24:52.417Z,95.69
2023-05-14T03:29:54.214Z,95.51
2023-05-14T03:34:56.240Z,95.32
2023-05-14T03:39:57.849Z,95.09
2023-05-14T03:44:59.431Z,95.02
2023-05-14T03:50:01.146Z,95.24
2023-05-14T03:55:03.553Z,95.10
2023-05-14T04:00:05.818Z,95.09
2023-05-14T04:05:18.229Z,95.75
2023-05-14T04:10:20.525Z,95.72
2023-05-14T04:15:22.565Z,96.16
2023-05-14T04:20:24.405Z,96.44
2023-05-14T04:25:26.181Z,96.09
2023-05-14T04:30:27.809Z,95.92
2023-05-14T04:35:29.547Z,95.69
2023-05-14T04:40:31.825Z,95.67
2023-05-14T04:45:34.518Z,95.70
2023-05-14T04:50:36.153Z,94.73
2023-05-14T04:55:37.748Z,95.32
2023-05-14T05:00:40.840Z,95.11
2023-05-14T05:05:42.508Z,95.52
2023-05-14T05:10:44.257Z,95.81
2023-05-14T05:15:46.105Z,95.68
2023-05-14T05:20:47.994Z,95.85
2023-05-14T05:25:50.509Z,95.26
2023-05-14T05:30:52.157Z,95.69
2023-05-14T05:35:53.857Z,95.69
2023-05-14T05:40:55.516Z,95.74
2023-05-14T05:45:57.087Z,96.03
2023-05-14T05:50:58.824Z,95.80
2023-05-14T05:56:00.429Z,95.42
2023-05-14T06:01:02.422Z,95.46
2023-05-14T06:06:04.360Z,95.85
2023-05-14T06:11:06.104Z,95.82
2023-05-14T06:16:07.902Z,96.83
2023-05-14T06:21:09.543Z,97.46
2023-05-14T06:26:11.221Z,98.89
2023-05-14T06:31:13.711Z,98.95
2023-05-14T06:36:15.505Z,99.58
2023-05-14T06:41:17.213Z,99.84
2023-05-14T06:46:18.824Z,99.83
2023-05-14T06:51:20.569Z,99.94
2023-05-14T06:56:22.496Z,100.00
2023-05-14T07:01:24.263Z,100.00
2023-05-14T07:06:26.213Z,100.00
2023-05-14T07:11:28.020Z,100.00
2023-05-14T07:16:29.988Z,100.00
2023-05-14T07:21:32.704Z,100.00
2023-05-14T07:26:34.906Z,100.00
2023-05-14T07:31:36.915Z,100.00
2023-05-14T07:36:39.477Z,100.00
2023-05-14T07:41:43.681Z,100.00
2023-05-14T07:46:45.892Z,100.00
2023-05-14T07:51:47.703Z,100.00
2023-05-14T07:56:49.618Z,100.00
2023-05-14T08:01:51.646Z,100.00
2023-05-14T08:06:53.398Z,100.00
2023-05-14T08:11:55.031Z,100.00
2023-05-14T08:16:56.708Z,100.00
2023-05-14T08:21:58.678Z,100.00
2023-05-14T08:27:00.608Z,100.00
2023-05-14T08:32:08.729Z,100.00
2023-05-14T08:37:21.339Z,100.00
2023-05-14T08:42:25.668Z,100.00
2023-05-14T08:47:30.383Z,100.00
2023-05-14T08:52:32.948Z,100.00
2023-05-14T08:57:35.612Z,100.00
2023-05-14T09:02:39.764Z,100.00
2023-05-14T09:07:41.695Z,100.00
2023-05-14T09:12:43.501Z,100.00
2023-05-14T09:17:48.039Z,100.00
2023-05-14T09:22:53.688Z,100.00
2023-05-14T09:27:58.640Z,100.00
2023-05-14T09:33:01.639Z,100.00
2023-05-14T09:38:03.453Z,100.00
2023-05-14T09:43:07.354Z,100.00
2023-05-14T09:48:09.135Z,100.00
2023-05-14T09:53:11.772Z,100.00
2023-05-14T09:58:16.370Z,100.00
2023-05-14T10:03:20.500Z,100.00
2023-05-14T10:08:26.872Z,100.00
2023-05-14T10:13:33.080Z,100.00
2023-05-14T10:18:43.785Z,100.00
2023-05-14T10:23:47.084Z,100.00
2023-05-14T10:28:48.855Z,100.00
2023-05-14T10:33:51.244Z,100.00
2023-05-14T10:38:57.860Z,100.00
2023-05-14T10:43:59.735Z,100.00
2023-05-14T10:49:01.851Z,100.00
2023-05-14T10:54:03.641Z,100.00
2023-05-14T10:59:06.853Z,100.00
2023-05-14T11:04:17.907Z,100.00
2023-05-14T11:09:21.390Z,100.00
2023-05-14T11:14:23.345Z,100.00
2023-05-14T11:19:25.151Z,100.00
2023-05-14T11:24:26.786Z,100.00
2023-05-14T11:29:28.480Z,100.00
2023-05-14T11:34:30.148Z,100.00
2023-05-14T11:39:33.091Z,100.00
2023-05-14T11:44:34.974Z,100.00
2023-05-14T11:49:37.959Z,100.00
2023-05-14T11:54:41.001Z,100.00
2023-05-14T11:59:43.032Z,100.00
2023-05-14T12:04:49.497Z,100.00
2023-05-14T12:09:57.357Z,100.00
2023-05-14T12:14:59.928Z,100.00
2023-05-14T12:20:01.698Z,100.00
2023-05-14T12:25:04.040Z,100.00
2023-05-14T12:30:20.033Z,100.00
2023-05-14T12:35:23.584Z,100.00
2023-05-14T12:40:25.995Z,100.00
2023-05-14T12:45:28.189Z,100.00
2023-05-14T12:50:29.884Z,100.00
2023-05-14T12:55:31.876Z,100.00
2023-05-14T13:00:33.559Z,100.00
2023-05-14T13:05:35.942Z,100.00
2023-05-14T13:10:38.103Z,100.00
2023-05-14T13:15:39.734Z,100.00
2023-05-14T13:20:43.250Z,100.00
2023-05-14T13:25:45.782Z,100.00
2023-05-14T13:31:08.236Z,100.00
2023-05-14T13:36:12.092Z,100.00
2023-05-14T13:41:13.979Z,100.00
2023-05-14T13:46:15.753Z,100.00
2023-05-14T13:51:17.728Z,100.00
2023-05-14T13:56:19.791Z,100.00
2023-05-14T14:01:21.925Z,100.00
2023-05-14T14:06:25.687Z,100.00
2023-05-14T14:11:27.650Z,100.00
2023-05-14T14:16:29.531Z,100.00
2023-05-14T14:21:31.839Z,100.00
2023-05-14T14:26:33.789Z,100.00
2023-05-14T14:31:36.509Z,100.00
2023-05-14T14:36:38.226Z,100.00
2023-05-14T14:41:40.079Z,100.00
2023-05-14T14:46:42.970Z,100.00
2023-05-14T14:51:44.908Z,100.00
2023-05-14T14:56:49.223Z,100.00
2023-05-14T15:01:51.137Z,100.00
2023-05-14T15:06:52.769Z,100.00
2023-05-14T15:11:54.561Z,100.00
2023-05-14T15:16:56.239Z,100.00
2023-05-14T15:21:58.586Z,100.00
2023-05-14T15:27:00.417Z,100.00
2023-05-14T15:32:02.521Z,100.00
2023-05-14T15:37:04.415Z,100.00
2023-05-14T15:42:06.554Z,100.00
2023-05-14T15:47:08.225Z,100.00
2023-05-14T15:52:10.035Z,100.00
2023-05-14T15:57:14.569Z,100.00
2023-05-14T16:02:16.308Z,100.00
2023-05-14T16:07:17.972Z,100.00
2023-05-14T16:12:19.679Z,100.00
2023-05-14T16:17:21.315Z,100.00
2023-05-14T16:22:22.958Z,100.00
2023-05-14T16:27:24.986Z,100.00
2023-05-14T16:32:27.720Z,100.00
2023-05-14T16:37:29.610Z,100.00
2023-05-14T16:42:31.294Z,100.00
2023-05-14T16:47:33.010Z,100.00
2023-05-14T16:52:34.802Z,100.00
2023-05-14T16:57:36.740Z,100.00
2023-05-14T17:02:39.248Z,100.00
2023-05-14T17:07:41.355Z,100.00
2023-05-14T17:12:43.472Z,100.00
2023-05-14T17:17:52.675Z,100.00
2023-05-14T17:22:54.511Z,100.00
2023-05-14T17:27:56.344Z,100.00
2023-05-14T17:32:58.603Z,100.00
2023-05-14T17:38:04.962Z,100.00
2023-05-14T17:48:35.051Z,100.00
2023-05-14T17:53:37.143Z,100.00
2023-05-14T17:58:41.617Z,100.00
2023-05-14T18:03:43.601Z,100.00
2023-05-14T18:08:45.350Z,100.00
2023-05-14T18:13:49.125Z,100.00
2023-05-14T18:18:51.918Z,100.00
2023-05-14T18:24:07.508Z,100.00
2023-05-14T18:29:09.243Z,100.00
2023-05-14T18:34:11.816Z,100.00
2023-05-14T18:39:14.740Z,100.00
2023-05-14T18:44:16.646Z,100.00
2023-05-14T18:49:18.409Z,100.00
2023-05-14T18:54:20.182Z,100.00
2023-05-14T18:59:21.845Z,100.00
2023-05-14T19:04:25.295Z,100.00
2023-05-14T19:09:27.069Z,100.00
2023-05-14T19:14:29.623Z,100.00
2023-05-14T19:19:31.581Z,100.00
2023-05-14T19:24:37.421Z,100.00
2023-05-14T19:29:41.359Z,100.00
2023-05-14T19:34:49.540Z,100.00
2023-05-14T19:40:22.216Z,100.00
2023-05-14T19:45:24.278Z,100.00
2023-05-14T19:50:26.388Z,100.00
2023-05-14T19:55:28.278Z,100.00
2023-05-14T20:00:30.003Z,100.00
2023-05-14T20:05:34.244Z,100.00
2023-05-14T20:10:35.912Z,100.00
2023-05-14T20:15:37.793Z,100.00
2023-05-14T20:20:39.995Z,100.00
2023-05-14T20:25:43.023Z,100.00
2023-05-14T20:30:44.720Z,100.00
2023-05-14T20:35:46.419Z,100.00
2023-05-14T20:40:48.348Z,100.00
2023-05-14T20:45:50.030Z,100.00
2023-05-14T20:50:51.678Z,100.00
2023-05-14T20:55:53.313Z,100.00
2023-05-14T21:00:54.973Z,100.00
2023-05-14T21:05:56.865Z,100.00
2023-05-14T21:10:59.067Z,100.00
2023-05-14T21:16:01.348Z,100.00
2023-05-14T21:21:03.319Z,100.00
2023-05-14T21:26:05.022Z,100.00
2023-05-14T21:31:06.662Z,100.00
2023-05-14T21:36:09.321Z,100.00
2023-05-14T21:41:11.006Z,100.00
2023-05-14T21:46:12.747Z,100.00
2023-05-14T21:51:14.566Z,100.00
2023-05-14T21:56:16.828Z,100.00
2023-05-14T22:01:18.590Z,100.00
2023-05-14T22:06:20.983Z,100.00
2023-05-14T22:11:22.666Z,100.00
2023-05-14T22:16:26.364Z,100.00
2023-05-14T22:21:28.762Z,100.00
2023-05-14T22:26:30.748Z,100.00
2023-05-14T22:31:32.982Z,100.00
2023-05-14T22:36:36.385Z,100.00
2023-05-14T22:41:38.163Z,100.00
2023-05-14T22:46:39.859Z,100.00
2023-05-14T22:51:42.384Z,100.00
2023-05-14T22:56:44.076Z,100.00
2023-05-14T23:01:45.884Z,100.00
2023-05-14T23:06:48.347Z,100.00
2023-05-14T23:11:50.358Z,100.00
2023-05-14T23:16:52.260Z,100.00
2023-05-14T23:21:53.942Z,100.00
2023-05-14T23:26:55.895Z,100.00
2023-05-14T23:31:57.603Z,100.00
2023-05-14T23:36:59.301Z,100.00
2023-05-14T23:42:01.103Z,100.00
2023-05-14T23:47:03.251Z,100.00
2023-05-14T23:52:05.293Z,100.00
2023-05-14T23:57:07.151Z,100.00
